createdAt,value
2022-09-26T00:02:39.605Z,16.30
2022-09-26T00:07:47.483Z,16.23
2022-09-26T00:12:56.569Z,18.20
2022-09-26T00:18:04.420Z,18.37
2022-09-26T00:23:12.961Z,19.80
2022-09-26T00:28:21.107Z,16.63
2022-09-26T00:33:29.452Z,16.30
2022-09-26T00:38:37.271Z,15.23
2022-09-26T00:43:47.652Z,18.10
2022-09-26T00:48:58.958Z,17.70
2022-09-26T00:54:07.403Z,17.27
2022-09-26T00:59:19.285Z,17.53
2022-09-26T01:04:28.621Z,15.60
2022-09-26T01:09:36.461Z,15.87
2022-09-26T01:14:44.389Z,16.20
2022-09-26T01:19:55.345Z,16.93
2022-09-26T01:25:07.253Z,16.63
2022-09-26T01:30:17.956Z,17.93
2022-09-26T01:40:41.652Z,18.07
2022-09-26T01:45:52.846Z,18.30
2022-09-26T01:51:03.833Z,16.97
2022-09-26T01:56:15.144Z,18.87
2022-09-26T02:01:23.655Z,17.07
2022-09-26T02:06:34.631Z,17.90
2022-09-26T02:11:43.668Z,17.70
2022-09-26T02:16:53.559Z,20.67
2022-09-26T02:22:01.835Z,15.93
2022-09-26T02:27:10.153Z,14.87
2022-09-26T02:32:20.793Z,17.03
2022-09-26T02:37:29.924Z,16.77
2022-09-26T02:42:41.572Z,16.80
2022-09-26T02:53:06.571Z,17.93
2022-09-26T02:58:18.162Z,17.70
2022-09-26T03:03:31.581Z,18.07
2022-09-26T03:08:41.150Z,18.50
2022-09-26T03:13:48.925Z,16.83
2022-09-26T03:18:59.870Z,16.93
2022-09-26T03:24:07.735Z,16.70
2022-09-26T03:29:16.637Z,15.60
2022-09-26T03:34:24.426Z,15.40
2022-09-26T03:39:32.213Z,14.30
2022-09-26T03:44:39.993Z,14.37
2022-09-26T03:49:48.987Z,13.63
2022-09-26T03:54:56.832Z,14.70
2022-09-26T04:00:07.135Z,13.67
2022-09-26T04:05:14.904Z,15.07
2022-09-26T04:10:24.485Z,15.67
2022-09-26T04:15:32.305Z,15.40
2022-09-26T04:20:40.098Z,14.87
2022-09-26T04:25:47.914Z,15.10
2022-09-26T04:30:58.940Z,14.67
2022-09-26T04:36:08.772Z,13.17
2022-09-26T04:41:19.182Z,15.63
2022-09-26T04:46:30.656Z,11.10
2022-09-26T04:51:37.689Z,13.43
2022-09-26T04:56:46.021Z,14.80
2022-09-26T05:01:55.870Z,17.03
2022-09-26T05:07:03.726Z,16.17
2022-09-26T05:12:13.011Z,15.23
2022-09-26T05:17:21.906Z,12.87
2022-09-26T05:22:32.338Z,11.87
2022-09-26T05:27:40.209Z,13.37
2022-09-26T05:32:48.747Z,12.77
2022-09-26T05:37:59.689Z,14.40
2022-09-26T05:43:08.380Z,15.50
2022-09-26T05:48:17.683Z,16.27
2022-09-26T05:53:26.575Z,18.27
2022-09-26T05:58:37.032Z,16.47
2022-09-26T06:03:46.317Z,15.33
2022-09-26T06:08:56.976Z,14.57
2022-09-26T06:14:04.784Z,14.47
2022-09-26T06:19:12.599Z,14.90
2022-09-26T06:24:21.440Z,14.17
2022-09-26T06:29:29.710Z,14.90
2022-09-26T06:34:37.508Z,14.80
2022-09-26T06:39:45.400Z,15.17
2022-09-26T06:44:53.523Z,16.83
2022-09-26T06:50:01.688Z,18.40
2022-09-26T06:55:10.323Z,18.57
2022-09-26T07:00:18.235Z,18.83
2022-09-26T07:05:26.428Z,18.03
2022-09-26T07:10:35.410Z,19.03
2022-09-26T07:15:45.685Z,19.57
2022-09-26T07:20:56.834Z,22.83
2022-09-26T07:26:03.427Z,23.57
2022-09-26T07:31:11.776Z,24.03
2022-09-26T07:36:21.297Z,25.73
2022-09-26T07:41:30.672Z,36.10
2022-09-26T07:46:40.238Z,35.50
2022-09-26T07:51:48.620Z,30.90
2022-09-26T07:56:57.084Z,32.27
2022-09-26T08:02:05.325Z,29.53
2022-09-26T08:07:13.747Z,29.70
2022-09-26T08:12:21.577Z,26.37
2022-09-26T08:17:32.950Z,25.17
2022-09-26T08:22:40.824Z,23.87
2022-09-26T08:27:50.282Z,20.03
2022-09-26T08:32:59.738Z,22.23
2022-09-26T08:38:08.620Z,21.90
2022-09-26T08:43:19.753Z,20.73
2022-09-26T08:48:31.397Z,21.87
2022-09-26T08:53:43.438Z,21.50
2022-09-26T08:58:54.062Z,19.60
2022-09-26T09:04:05.367Z,21.67
2022-09-26T09:09:15.924Z,19.93
2022-09-26T09:14:27.397Z,20.23
2022-09-26T09:19:38.555Z,19.97
2022-09-26T09:30:15.694Z,20.93
2022-09-26T09:35:16.549Z,19.87
2022-09-26T09:40:28.898Z,21.80
2022-09-26T09:50:55.613Z,22.00
2022-09-26T10:01:24.563Z,19.97
2022-09-26T10:06:46.189Z,23.37
2022-09-26T10:11:43.201Z,18.53
2022-09-26T10:16:54.139Z,23.37
2022-09-26T10:22:02.235Z,23.53
2022-09-26T10:27:14.284Z,25.13
2022-09-26T10:32:22.054Z,26.30
2022-09-26T10:37:31.342Z,29.43
2022-09-26T10:42:39.630Z,28.20
2022-09-26T10:47:47.440Z,25.60
2022-09-26T10:52:58.200Z,22.53
2022-09-26T10:58:13.509Z,23.90
2022-09-26T11:03:20.161Z,21.17
2022-09-26T11:08:31.233Z,24.57
2022-09-26T11:13:43.149Z,25.30
2022-09-26T11:24:09.989Z,36.20
2022-09-26T11:29:21.324Z,28.03
2022-09-26T11:34:31.519Z,43.97
2022-09-26T11:39:42.445Z,33.20
2022-09-26T11:44:55.484Z,23.10
2022-09-26T11:50:07.977Z,21.87
2022-09-26T11:55:19.889Z,18.53
2022-09-26T12:00:30.881Z,18.63
2022-09-26T12:05:41.873Z,15.80
2022-09-26T12:16:15.533Z,12.10
2022-09-26T12:26:43.012Z,10.77
2022-09-26T12:31:54.906Z,11.13
2022-09-26T12:42:20.315Z,15.33
2022-09-26T12:47:57.758Z,15.17
2022-09-26T12:53:51.736Z,18.50
2022-09-26T12:59:04.584Z,20.57
2022-09-26T13:04:57.209Z,21.70
2022-09-26T13:10:57.227Z,20.77
2022-09-26T13:16:16.624Z,18.47
2022-09-26T13:21:28.704Z,16.67
2022-09-26T13:27:13.612Z,14.97
2022-09-26T13:32:44.136Z,12.83
2022-09-26T13:38:32.478Z,14.27
2022-09-26T13:44:30.903Z,13.97
2022-09-26T13:50:36.571Z,12.50
2022-09-26T13:55:54.075Z,13.03
2022-09-26T14:01:05.109Z,12.27
2022-09-26T14:06:16.882Z,11.23
2022-09-26T14:11:28.833Z,10.93
2022-09-26T14:16:37.546Z,10.53
2022-09-26T14:21:48.847Z,10.43
2022-09-26T14:26:59.799Z,10.63
2022-09-26T14:32:11.134Z,9.10
2022-09-26T14:37:22.872Z,9.25
2022-09-26T14:42:33.987Z,5.43
2022-09-26T14:47:44.365Z,6.43
2022-09-26T14:52:57.811Z,6.13
2022-09-26T14:58:09.566Z,6.30
2022-09-26T15:03:18.836Z,4.73
2022-09-26T15:08:27.899Z,4.20
2022-09-26T15:13:39.650Z,4.50
2022-09-26T15:18:50.804Z,4.37
2022-09-26T15:23:58.663Z,4.13
2022-09-26T15:29:07.914Z,3.33
2022-09-26T15:34:17.930Z,3.97
2022-09-26T15:39:29.068Z,3.60
2022-09-26T15:44:37.636Z,3.50
2022-09-26T15:49:45.484Z,3.53
2022-09-26T15:54:55.843Z,3.87
2022-09-26T16:00:03.950Z,3.33
2022-09-26T16:05:13.194Z,3.53
2022-09-26T16:10:24.584Z,3.87
2022-09-26T16:15:32.795Z,4.50
2022-09-26T16:20:42.119Z,5.10
2022-09-26T16:25:53.717Z,4.90
2022-09-26T16:31:05.931Z,8.17
2022-09-26T16:36:18.920Z,8.43
2022-09-26T16:42:00.197Z,6.93
2022-09-26T16:46:51.037Z,6.47
2022-09-26T16:52:02.563Z,5.17
2022-09-26T16:57:13.087Z,4.87
2022-09-26T17:02:22.106Z,4.60
2022-09-26T17:07:30.131Z,4.70
2022-09-26T17:12:38.047Z,4.97
2022-09-26T17:17:45.969Z,5.97
2022-09-26T17:22:55.689Z,4.80
2022-09-26T17:28:04.763Z,5.60
2022-09-26T17:33:12.708Z,5.83
2022-09-26T17:38:21.765Z,8.53
2022-09-26T17:43:29.755Z,9.57
2022-09-26T17:48:38.321Z,10.30
2022-09-26T17:53:50.856Z,12.43
2022-09-26T17:58:59.432Z,15.70
2022-09-26T18:04:07.939Z,16.77
2022-09-26T18:09:35.447Z,17.33
2022-09-26T18:14:43.724Z,20.57
2022-09-26T18:19:51.943Z,24.27
2022-09-26T18:25:04.458Z,22.33
2022-09-26T18:30:15.517Z,21.47
2022-09-26T18:35:26.145Z,19.63
2022-09-26T18:40:36.066Z,21.00
2022-09-26T18:45:46.538Z,20.33
2022-09-26T18:50:54.942Z,19.97
2022-09-26T18:56:04.884Z,20.30
2022-09-26T19:01:16.073Z,19.10
2022-09-26T19:06:25.964Z,20.60
2022-09-26T19:11:35.427Z,20.80
2022-09-26T19:16:45.690Z,21.80
2022-09-26T19:21:59.914Z,23.90
2022-09-26T19:27:11.350Z,27.07
2022-09-26T19:32:22.251Z,28.47
2022-09-26T19:37:31.055Z,28.40
2022-09-26T19:42:40.717Z,29.57
2022-09-26T19:47:50.948Z,31.23
2022-09-26T19:58:14.676Z,24.97
2022-09-26T20:03:25.978Z,23.73
2022-09-26T20:08:35.078Z,25.27
2022-09-26T20:13:45.022Z,24.40
2022-09-26T20:18:54.930Z,25.13
2022-09-26T20:24:02.885Z,25.77
2022-09-26T20:29:14.504Z,24.53
2022-09-26T20:34:22.449Z,26.33
2022-09-26T20:39:30.481Z,27.93
2022-09-26T20:44:38.582Z,24.00
2022-09-26T20:49:49.801Z,26.00
2022-09-26T20:54:58.241Z,29.10
2022-09-26T21:00:07.048Z,30.87
2022-09-26T21:05:17.331Z,32.90
2022-09-26T21:10:28.591Z,37.67
2022-09-26T21:15:37.185Z,27.43
2022-09-26T21:20:45.280Z,26.90
2022-09-26T21:26:15.138Z,24.67
2022-09-26T21:31:27.707Z,24.40
2022-09-26T21:36:38.124Z,26.30
2022-09-26T21:41:47.740Z,23.87
2022-09-26T21:46:55.633Z,22.33
2022-09-26T21:52:06.655Z,19.80
2022-09-26T21:57:17.175Z,20.67
2022-09-26T22:02:26.051Z,20.07
2022-09-26T22:07:34.285Z,22.33
2022-09-26T22:12:42.480Z,21.60
2022-09-26T22:17:50.532Z,21.70
2022-09-26T22:22:58.590Z,20.87
2022-09-26T22:33:11.980Z,18.67
2022-09-26T22:38:19.818Z,21.77
2022-09-26T22:43:28.626Z,21.03
2022-09-26T22:48:37.881Z,20.13
2022-09-26T22:53:46.045Z,20.97
2022-09-26T22:58:54.327Z,19.87
2022-09-26T23:04:02.403Z,21.90
2022-09-26T23:09:10.268Z,20.57
2022-09-26T23:14:18.195Z,21.90
2022-09-26T23:19:26.016Z,21.47
2022-09-26T23:24:34.006Z,22.20
2022-09-26T23:29:42.091Z,21.07
2022-09-26T23:34:50.594Z,20.57
2022-09-26T23:39:58.443Z,19.93
2022-09-26T23:45:07.042Z,19.80
2022-09-26T23:50:14.994Z,20.07
2022-09-26T23:55:22.955Z,19.83
